createdAt,value
2018-06-09T00:01:33.918Z,60.90
2018-06-09T00:06:30.603Z,60.90
2018-06-09T00:08:59.155Z,60.70
2018-06-09T00:11:27.686Z,60.10
2018-06-09T00:13:56.200Z,59.90
2018-06-09T00:16:24.696Z,59.60
2018-06-09T00:18:53.878Z,59.10
2018-06-09T00:21:22.941Z,59.50
2018-06-09T00:23:51.834Z,60.00
2018-06-09T00:26:20.316Z,59.80
2018-06-09T00:28:48.794Z,59.40
2018-06-09T00:31:17.378Z,59.40
2018-06-09T00:33:45.868Z,59.20
2018-06-09T00:36:14.423Z,59.40
2018-06-09T00:38:43.632Z,59.40
2018-06-09T00:41:12.152Z,59.80
2018-06-09T00:43:40.643Z,59.80
2018-06-09T00:46:09.170Z,60.10
2018-06-09T00:48:37.653Z,61.70
2018-06-09T00:51:06.182Z,61.70
2018-06-09T00:53:34.676Z,62.80
2018-06-09T00:58:37.280Z,64.50
2018-06-09T01:03:34.025Z,65.70
2018-06-09T01:08:30.779Z,67.50
2018-06-09T01:10:59.266Z,67.80
2018-06-09T01:15:55.999Z,69.10
2018-06-09T01:18:24.551Z,68.40
2018-06-09T01:20:54.354Z,68.20
2018-06-09T01:23:23.295Z,68.00
2018-06-09T01:25:52.367Z,67.60
2018-06-09T01:28:20.887Z,66.90
2018-06-09T01:33:17.643Z,66.10
2018-06-09T01:38:14.394Z,66.00
2018-06-09T01:43:11.146Z,65.20
2018-06-09T01:45:39.615Z,65.70
2018-06-09T01:48:08.122Z,66.00
2018-06-09T01:53:04.871Z,66.20
2018-06-09T01:58:01.623Z,67.10
2018-06-09T02:00:30.112Z,67.20
2018-06-09T02:05:26.852Z,68.70
2018-06-09T02:07:55.343Z,69.00
2018-06-09T02:10:24.783Z,67.80
2018-06-09T02:12:53.911Z,67.80
2018-06-09T02:15:23.507Z,67.90
2018-06-09T02:17:52.715Z,68.30
2018-06-09T02:20:21.238Z,68.50
2018-06-09T02:25:17.974Z,69.40
2018-06-09T02:27:46.434Z,69.80
2018-06-09T02:30:15.003Z,70.00
2018-06-09T02:32:43.496Z,70.50
2018-06-09T02:35:12.066Z,70.10
2018-06-09T02:37:40.569Z,70.20
2018-06-09T02:40:09.110Z,70.20
2018-06-09T02:42:37.578Z,70.50
2018-06-09T02:45:06.062Z,70.70
2018-06-09T02:47:34.582Z,70.90
2018-06-09T02:50:03.079Z,71.40
2018-06-09T02:52:31.604Z,71.20
2018-06-09T02:55:00.133Z,72.10
2018-06-09T02:57:28.643Z,72.90
2018-06-09T02:59:57.165Z,73.20
2018-06-09T03:02:25.663Z,74.40
2018-06-09T03:04:55.163Z,75.20
2018-06-09T03:07:24.707Z,75.90
2018-06-09T03:09:54.121Z,76.80
2018-06-09T03:12:22.666Z,77.00
2018-06-09T03:14:51.132Z,77.10
2018-06-09T03:17:19.677Z,77.80
2018-06-09T03:22:16.397Z,78.30
2018-06-09T03:24:44.928Z,78.90
2018-06-09T03:27:13.405Z,79.50
2018-06-09T03:32:10.198Z,80.30
2018-06-09T03:34:38.723Z,80.40
2018-06-09T03:37:07.219Z,80.40
2018-06-09T03:42:04.023Z,81.20
2018-06-09T03:44:32.526Z,81.50
2018-06-09T03:47:01.070Z,80.60
2018-06-09T03:49:29.550Z,80.10
2018-06-09T03:51:58.087Z,79.80
2018-06-09T03:54:26.564Z,79.10
2018-06-09T03:56:55.056Z,78.80
2018-06-09T03:59:24.715Z,78.40
2018-06-09T04:01:54.258Z,77.90
2018-06-09T04:04:23.822Z,77.70
2018-06-09T04:06:52.427Z,77.00
2018-06-09T04:09:21.421Z,76.40
2018-06-09T04:11:49.906Z,76.50
2018-06-09T04:14:18.448Z,76.00
2018-06-09T04:16:49.434Z,75.70
2018-06-09T04:19:18.055Z,75.00
2018-06-09T04:24:14.822Z,74.20
2018-06-09T04:26:43.341Z,73.80
2018-06-09T04:29:11.856Z,73.20
2018-06-09T04:31:40.363Z,73.50
2018-06-09T04:34:08.879Z,73.00
2018-06-09T04:36:37.410Z,72.60
2018-06-09T04:46:31.957Z,70.70
2018-06-09T04:49:00.478Z,70.20
2018-06-09T04:51:29.010Z,68.90
2018-06-09T04:53:57.520Z,68.80
2018-06-09T04:56:27.208Z,68.90
2018-06-09T04:58:56.769Z,69.40
2018-06-09T05:01:26.059Z,68.20
2018-06-09T05:03:54.594Z,67.90
2018-06-09T05:08:52.366Z,66.90
2018-06-09T05:11:20.875Z,65.80
2018-06-09T05:13:49.390Z,63.50
2018-06-09T05:16:17.964Z,62.90
2018-06-09T05:18:46.486Z,61.90
2018-06-09T05:21:14.973Z,61.70
2018-06-09T05:26:11.760Z,61.20
2018-06-09T05:28:40.291Z,60.90
2018-06-09T05:31:08.862Z,60.80
2018-06-09T05:33:37.410Z,60.40
2018-06-09T05:36:05.901Z,59.10
2018-06-09T05:38:34.397Z,58.20
2018-06-09T05:41:02.921Z,58.10
2018-06-09T05:43:31.410Z,58.80
2018-06-09T05:48:28.574Z,57.80
2018-06-09T05:53:26.758Z,58.70
2018-06-09T05:55:56.303Z,57.50
2018-06-09T05:58:30.473Z,58.00
2018-06-09T06:00:59.352Z,57.50
2018-06-09T06:03:27.958Z,56.70
2018-06-09T06:05:57.376Z,56.70
2018-06-09T06:08:26.783Z,56.60
2018-06-09T06:10:56.149Z,55.20
2018-06-09T06:13:25.067Z,55.30
2018-06-09T06:15:54.067Z,55.30
2018-06-09T06:18:22.647Z,55.60
2018-06-09T06:20:51.334Z,56.00
2018-06-09T06:23:19.988Z,55.60
2018-06-09T06:25:48.605Z,56.10
2018-06-09T06:28:17.180Z,55.80
2018-06-09T06:30:45.890Z,55.00
2018-06-09T06:33:14.555Z,53.20
2018-06-09T06:35:43.245Z,53.40
2018-06-09T06:38:11.841Z,53.90
2018-06-09T06:40:40.511Z,53.60
2018-06-09T06:43:09.110Z,52.90
2018-06-09T06:45:37.805Z,52.60
2018-06-09T06:48:06.528Z,53.80
2018-06-09T06:50:35.150Z,51.40
2018-06-09T06:53:03.817Z,50.80
2018-06-09T06:55:32.630Z,50.50
2018-06-09T06:58:01.704Z,51.20
2018-06-09T07:02:58.685Z,50.50
2018-06-09T07:05:27.448Z,50.30
2018-06-09T07:07:56.795Z,49.70
2018-06-09T07:10:26.151Z,50.70
2018-06-09T07:12:55.364Z,52.40
2018-06-09T07:15:24.721Z,49.20
2018-06-09T07:17:53.443Z,49.10
2018-06-09T07:22:50.410Z,49.60
2018-06-09T07:25:19.041Z,50.60
2018-06-09T07:27:47.742Z,50.20
2018-06-09T07:30:16.471Z,48.70
2018-06-09T07:32:45.163Z,48.70
2018-06-09T07:35:13.934Z,49.60
2018-06-09T07:40:11.028Z,47.90
2018-06-09T07:42:39.659Z,47.70
2018-06-09T07:45:08.367Z,45.80
2018-06-09T07:50:05.367Z,45.70
2018-06-09T07:52:34.066Z,44.60
2018-06-09T07:55:02.752Z,45.40
2018-06-09T07:57:31.407Z,44.20
2018-06-09T08:00:01.164Z,45.80
2018-06-09T08:02:29.949Z,44.40
2018-06-09T08:04:58.651Z,44.70
2018-06-09T08:07:28.107Z,44.60
2018-06-09T08:09:57.567Z,43.40
2018-06-09T08:12:26.908Z,42.50
2018-06-09T08:14:56.724Z,42.50
2018-06-09T08:17:25.704Z,42.50
2018-06-09T08:19:54.624Z,40.00
2018-06-09T08:22:23.321Z,38.90
2018-06-09T08:24:51.999Z,39.90
2018-06-09T08:27:20.582Z,39.10
2018-06-09T08:29:49.398Z,39.20
2018-06-09T08:32:19.263Z,36.30
2018-06-09T08:34:48.091Z,36.60
2018-06-09T08:37:16.800Z,36.40
2018-06-09T08:39:45.432Z,36.00
2018-06-09T08:42:13.991Z,36.80
2018-06-09T08:44:43.597Z,36.60
2018-06-09T08:49:41.657Z,34.50
2018-06-09T08:52:10.373Z,34.00
2018-06-09T08:54:39.136Z,35.10
2018-06-09T08:57:07.949Z,31.10
2018-06-09T08:59:36.638Z,32.20
2018-06-09T09:02:05.350Z,31.80
2018-06-09T09:04:34.009Z,30.10
2018-06-09T09:07:02.652Z,30.70
2018-06-09T09:09:31.439Z,29.40
2018-06-09T09:12:00.269Z,28.70
2018-06-09T09:14:28.990Z,29.90
2018-06-09T09:16:57.698Z,27.80
2018-06-09T09:19:27.069Z,28.10
2018-06-09T09:21:56.307Z,27.70
2018-06-09T09:24:25.659Z,27.90
2018-06-09T09:26:55.110Z,27.80
2018-06-09T09:29:24.533Z,27.60
2018-06-09T09:31:54.213Z,27.00
2018-06-09T09:34:23.017Z,27.20
2018-06-09T09:36:51.694Z,27.80
2018-06-09T09:39:20.272Z,28.80
2018-06-09T09:41:48.951Z,27.80
2018-06-09T09:44:17.680Z,28.80
2018-06-09T09:46:46.331Z,28.50
2018-06-09T09:49:15.050Z,29.20
2018-06-09T09:51:43.633Z,30.20
2018-06-09T09:56:40.624Z,31.70
2018-06-09T09:59:09.301Z,30.00
2018-06-09T10:01:37.902Z,29.90
2018-06-09T10:04:07.212Z,30.90
2018-06-09T10:06:36.783Z,31.20
2018-06-09T10:09:08.133Z,30.60
2018-06-09T10:11:37.614Z,31.60
2018-06-09T10:14:07.563Z,30.20
2018-06-09T10:16:36.999Z,31.40
2018-06-09T10:19:06.483Z,31.10
2018-06-09T10:21:36.062Z,31.00
2018-06-09T10:24:05.428Z,29.70
2018-06-09T10:26:35.032Z,30.50
2018-06-09T10:29:04.419Z,30.20
2018-06-09T10:31:33.130Z,29.40
2018-06-09T10:34:01.817Z,29.10
2018-06-09T10:36:30.673Z,29.70
2018-06-09T10:38:59.398Z,29.40
2018-06-09T10:41:28.060Z,29.50
2018-06-09T10:43:57.425Z,29.40
2018-06-09T10:46:26.647Z,28.50
2018-06-09T10:48:55.724Z,27.70
2018-06-09T10:51:24.947Z,28.50
2018-06-09T10:53:53.568Z,29.90
2018-06-09T10:58:50.753Z,29.90
2018-06-09T11:01:19.396Z,30.30
2018-06-09T11:06:17.324Z,28.50
2018-06-09T11:08:46.704Z,27.50
2018-06-09T11:11:15.567Z,26.50
2018-06-09T11:13:44.277Z,26.70
2018-06-09T11:16:12.860Z,27.00
2018-06-09T11:21:10.083Z,28.60
2018-06-09T11:23:38.822Z,28.40
2018-06-09T11:28:35.858Z,28.30
2018-06-09T11:31:04.787Z,28.80
2018-06-09T11:33:33.427Z,30.00
2018-06-09T11:36:02.139Z,28.80
2018-06-09T11:40:59.344Z,28.50
2018-06-09T11:43:28.547Z,29.80
2018-06-09T11:45:58.808Z,29.60
2018-06-09T11:48:27.962Z,30.20
2018-06-09T11:50:57.393Z,31.70
2018-06-09T11:53:26.585Z,30.50
2018-06-09T11:55:56.488Z,30.30
2018-06-09T11:58:26.170Z,29.00
2018-06-09T12:00:56.631Z,29.50
2018-06-09T12:03:26.161Z,30.00
2018-06-09T12:05:55.613Z,30.60
2018-06-09T12:08:25.057Z,29.90
2018-06-09T12:10:54.062Z,30.20
2018-06-09T12:13:22.769Z,31.40
2018-06-09T12:18:19.693Z,30.60
2018-06-09T12:20:48.546Z,30.90
2018-06-09T12:23:17.242Z,31.10
2018-06-09T12:25:45.818Z,32.50
2018-06-09T12:28:14.597Z,32.30
2018-06-09T12:30:43.742Z,30.80
2018-06-09T12:33:12.446Z,31.00
2018-06-09T12:35:41.107Z,31.20
2018-06-09T12:38:10.636Z,30.50
2018-06-09T12:40:39.259Z,30.00
2018-06-09T12:43:07.926Z,30.80
2018-06-09T12:48:05.004Z,30.40
2018-06-09T12:50:33.593Z,30.40
2018-06-09T12:53:02.501Z,30.80
2018-06-09T12:55:31.213Z,31.20
2018-06-09T12:57:59.865Z,31.60
2018-06-09T13:00:29.146Z,30.70
2018-06-09T13:02:58.838Z,29.50
2018-06-09T13:07:56.850Z,30.00
2018-06-09T13:10:25.543Z,31.10
2018-06-09T13:15:23.246Z,30.00
2018-06-09T13:17:51.998Z,30.50
2018-06-09T13:20:20.800Z,30.20
2018-06-09T13:22:53.423Z,28.90
2018-06-09T13:25:28.956Z,29.30
2018-06-09T13:27:58.316Z,29.90
2018-06-09T13:30:27.929Z,30.60
2018-06-09T13:32:57.388Z,29.40
2018-06-09T13:35:27.466Z,29.90
2018-06-09T13:37:57.521Z,29.50
2018-06-09T13:40:26.571Z,29.70
2018-06-09T13:42:55.488Z,31.10
2018-06-09T13:45:24.377Z,31.30
2018-06-09T13:47:53.066Z,31.50
2018-06-09T13:50:22.054Z,31.50
2018-06-09T13:52:50.742Z,31.10
2018-06-09T13:55:19.851Z,32.00
2018-06-09T13:57:49.068Z,31.40
2018-06-09T14:00:18.567Z,31.30
2018-06-09T14:02:48.465Z,30.20
2018-06-09T14:05:17.657Z,30.60
2018-06-09T14:07:47.844Z,30.70
2018-06-09T14:10:16.509Z,30.30
2018-06-09T14:12:48.913Z,30.30
2018-06-09T14:15:18.953Z,29.60
2018-06-09T14:17:48.134Z,30.10
2018-06-09T14:20:16.850Z,29.70
2018-06-09T14:22:46.742Z,29.00
2018-06-09T14:25:15.578Z,29.30
2018-06-09T14:27:44.404Z,31.00
2018-06-09T14:30:13.775Z,29.50
2018-06-09T14:32:45.184Z,29.90
2018-06-09T14:35:14.330Z,29.70
2018-06-09T14:37:43.087Z,29.20
2018-06-09T14:40:11.820Z,28.80
2018-06-09T14:42:41.893Z,29.50
2018-06-09T14:45:10.655Z,29.50
2018-06-09T14:47:39.307Z,30.00
2018-06-09T14:50:08.083Z,29.60
2018-06-09T14:52:36.863Z,29.40
2018-06-09T14:55:06.167Z,29.00
2018-06-09T14:57:35.067Z,28.80
2018-06-09T15:00:04.091Z,29.00
2018-06-09T15:02:32.745Z,28.50
2018-06-09T15:05:01.685Z,29.70
2018-06-09T15:07:30.337Z,30.10
2018-06-09T15:09:59.638Z,29.80
2018-06-09T15:12:29.332Z,28.50
2018-06-09T15:14:58.718Z,28.50
2018-06-09T15:17:28.128Z,28.80
2018-06-09T15:19:58.552Z,29.40
2018-06-09T15:22:28.070Z,29.40
2018-06-09T15:24:57.394Z,30.00
2018-06-09T15:27:26.069Z,31.00
2018-06-09T15:29:55.106Z,31.00
2018-06-09T15:32:23.909Z,29.80
2018-06-09T15:34:53.583Z,31.00
2018-06-09T15:37:28.837Z,29.70
2018-06-09T15:39:58.347Z,30.00
2018-06-09T15:42:28.395Z,30.00
2018-06-09T15:45:05.579Z,29.90
2018-06-09T15:47:34.530Z,29.80
2018-06-09T15:50:03.357Z,29.30
2018-06-09T15:52:32.244Z,29.40
2018-06-09T15:55:01.019Z,30.60
2018-06-09T15:57:30.835Z,29.90
2018-06-09T16:00:00.117Z,30.20
2018-06-09T16:04:59.830Z,30.30
2018-06-09T16:07:40.546Z,31.20
2018-06-09T16:10:10.058Z,31.70
2018-06-09T16:17:36.627Z,31.30
2018-06-09T16:20:05.760Z,31.50
2018-06-09T16:22:37.139Z,32.10
2018-06-09T16:27:38.243Z,32.70
2018-06-09T16:30:07.259Z,33.10
2018-06-09T16:32:35.991Z,33.40
2018-06-09T16:35:04.793Z,33.30
2018-06-09T16:37:33.677Z,33.20
2018-06-09T16:40:02.309Z,33.50
2018-06-09T16:42:31.010Z,33.90
2018-06-09T16:45:01.242Z,33.40
2018-06-09T16:47:30.472Z,33.30
2018-06-09T16:50:00.210Z,32.50
2018-06-09T16:52:29.924Z,33.00
2018-06-09T16:54:59.346Z,34.20
2018-06-09T16:57:28.846Z,31.80
2018-06-09T16:59:58.225Z,32.20
2018-06-09T17:02:26.790Z,32.30
2018-06-09T17:04:55.546Z,32.30
2018-06-09T17:07:24.313Z,32.20
2018-06-09T17:09:53.089Z,32.90
2018-06-09T17:12:22.104Z,33.20
2018-06-09T17:14:50.768Z,33.60
2018-06-09T17:17:19.390Z,32.60
2018-06-09T17:22:16.794Z,33.20
2018-06-09T17:24:45.523Z,33.30
2018-06-09T17:27:14.374Z,33.30
2018-06-09T17:29:43.055Z,32.90
2018-06-09T17:32:12.450Z,33.60
2018-06-09T17:34:41.420Z,33.30
2018-06-09T17:39:38.894Z,34.90
2018-06-09T17:42:07.616Z,35.30
2018-06-09T17:44:36.248Z,35.10
2018-06-09T17:47:05.599Z,35.70
2018-06-09T17:49:34.275Z,35.10
2018-06-09T17:52:02.873Z,37.10
2018-06-09T17:54:31.634Z,38.80
2018-06-09T17:57:00.860Z,42.40
2018-06-09T17:59:30.814Z,44.90
2018-06-09T18:02:00.134Z,46.70
2018-06-09T18:04:32.271Z,47.80
2018-06-09T18:07:01.645Z,48.90
2018-06-09T18:09:32.321Z,50.00
2018-06-09T18:12:01.767Z,50.60
2018-06-09T18:14:32.523Z,51.80
2018-06-09T18:17:01.512Z,52.70
2018-06-09T18:19:31.019Z,53.50
2018-06-09T18:22:00.718Z,53.60
2018-06-09T18:24:30.163Z,53.90
2018-06-09T18:26:59.871Z,53.90
2018-06-09T18:29:29.009Z,54.70
2018-06-09T18:31:58.494Z,54.80
2018-06-09T18:34:27.961Z,55.10
2018-06-09T18:36:56.751Z,56.30
2018-06-09T18:39:25.496Z,56.80
2018-06-09T18:41:55.851Z,57.40
2018-06-09T18:44:24.643Z,57.80
2018-06-09T18:46:54.113Z,58.10
2018-06-09T18:49:22.923Z,58.60
2018-06-09T18:51:52.190Z,58.80
2018-06-09T18:54:21.043Z,59.30
2018-06-09T18:56:49.915Z,59.40
2018-06-09T18:59:18.704Z,59.50
2018-06-09T19:01:49.146Z,60.10
2018-06-09T19:04:18.554Z,60.70
2018-06-09T19:06:47.349Z,62.40
2018-06-09T19:09:16.005Z,62.50
2018-06-09T19:11:44.710Z,62.90
2018-06-09T19:14:13.598Z,62.60
2018-06-09T19:16:42.734Z,62.70
2018-06-09T19:19:11.698Z,62.50
2018-06-09T19:21:40.781Z,62.70
2018-06-09T19:24:09.452Z,62.70
2018-06-09T19:26:38.224Z,63.80
2018-06-09T19:29:20.104Z,65.40
2018-06-09T19:31:49.165Z,65.30
2018-06-09T19:34:18.113Z,66.30
2018-06-09T19:36:47.121Z,66.40
2018-06-09T19:39:16.442Z,66.70
2018-06-09T19:41:45.539Z,67.50
2018-06-09T19:44:14.378Z,68.10
2018-06-09T19:46:43.485Z,68.80
2018-06-09T19:51:40.599Z,71.20
2018-06-09T19:56:38.406Z,71.40
2018-06-09T19:59:07.076Z,71.90
2018-06-09T20:01:35.822Z,73.10
2018-06-09T20:04:05.084Z,73.30
2018-06-09T20:06:34.174Z,73.20
2018-06-09T20:09:02.852Z,73.50
2018-06-09T20:14:06.459Z,74.60
2018-06-09T20:16:35.145Z,75.80
2018-06-09T20:21:32.062Z,77.00
2018-06-09T20:24:00.798Z,76.90
2018-06-09T20:26:30.657Z,77.40
2018-06-09T20:31:29.039Z,78.60
2018-06-09T20:33:58.576Z,78.90
2018-06-09T20:36:30.162Z,79.50
2018-06-09T20:39:00.449Z,80.10
2018-06-09T20:41:30.324Z,79.80
2018-06-09T20:43:59.640Z,80.00
2018-06-09T20:46:29.009Z,80.30
2018-06-09T20:48:58.652Z,80.20
2018-06-09T20:51:28.918Z,80.50
2018-06-09T20:53:58.560Z,81.40
2018-06-09T20:56:28.517Z,81.00
2018-06-09T20:58:58.027Z,81.20
2018-06-09T21:03:55.895Z,81.50
2018-06-09T21:06:24.438Z,81.50
2018-06-09T21:08:53.374Z,82.20
2018-06-09T21:11:22.604Z,83.00
2018-06-09T21:16:20.013Z,83.00
2018-06-09T21:18:48.636Z,83.20
2018-06-09T21:21:17.753Z,83.30
2018-06-09T21:23:46.360Z,83.60
2018-06-09T21:26:15.001Z,83.80
2018-06-09T21:28:49.213Z,84.10
2018-06-09T21:31:17.906Z,84.20
2018-06-09T21:34:03.432Z,84.80
2018-06-09T21:36:37.539Z,84.80
2018-06-09T21:39:13.641Z,84.80
2018-06-09T21:41:45.495Z,85.80
2018-06-09T21:44:19.146Z,86.20
2018-06-09T21:46:48.794Z,86.20
2018-06-09T21:49:17.811Z,86.60
2018-06-09T21:51:46.324Z,86.50
2018-06-09T21:56:43.126Z,87.40
2018-06-09T21:59:11.676Z,87.70
2018-06-09T22:04:08.483Z,87.60
2018-06-09T22:06:37.004Z,87.90
2018-06-09T22:11:34.269Z,89.00
2018-06-09T22:14:02.820Z,88.80
2018-06-09T22:16:32.412Z,88.90
2018-06-09T22:19:01.622Z,89.60
2018-06-09T22:21:31.231Z,90.00
2018-06-09T22:24:00.322Z,90.30
2018-06-09T22:26:29.243Z,90.10
2018-06-09T22:28:57.797Z,90.10
2018-06-09T22:31:26.320Z,90.20
2018-06-09T22:36:23.193Z,90.50
2018-06-09T22:38:51.720Z,90.70
2018-06-09T22:41:20.247Z,90.80
2018-06-09T22:46:17.010Z,90.80
2018-06-09T22:48:45.579Z,90.80
2018-06-09T22:53:42.375Z,91.00
2018-06-09T22:56:11.496Z,91.00
2018-06-09T22:58:40.047Z,91.20
2018-06-09T23:01:08.599Z,91.30
2018-06-09T23:03:37.107Z,91.40
2018-06-09T23:06:05.721Z,91.30
2018-06-09T23:08:34.260Z,91.40
2018-06-09T23:11:02.828Z,91.40
2018-06-09T23:18:29.570Z,91.60
2018-06-09T23:20:58.104Z,91.70
2018-06-09T23:23:26.614Z,91.80
2018-06-09T23:25:55.163Z,91.90
2018-06-09T23:28:23.681Z,92.10
2018-06-09T23:30:52.280Z,92.10
2018-06-09T23:33:20.843Z,92.20
2018-06-09T23:35:49.426Z,92.20
2018-06-09T23:38:17.954Z,92.30
2018-06-09T23:40:46.506Z,92.40
2018-06-09T23:43:15.026Z,92.50
2018-06-09T23:48:11.789Z,92.60
2018-06-09T23:53:08.599Z,92.70
2018-06-09T23:55:37.160Z,92.80
2018-06-09T23:58:05.684Z,93.00
